sensor_id;sensor_type;location;lat;lon;timestamp;P1;durP1;ratioP1;P2;durP2;ratioP2
14992;SDS011;7592;51.088;13.732;2024-02-16T00:00:35;22.97;;;19.30;;
14992;SDS011;7592;51.088;13.732;2024-02-16T00:05:29;20.47;;;18.27;;
14992;SDS011;7592;51.088;13.732;2024-02-16T00:10:21;20.10;;;16.77;;
14992;SDS011;7592;51.088;13.732;2024-02-16T00:15:13;23.37;;;18.57;;
14992;SDS011;7592;51.088;13.732;2024-02-16T00:20:05;24.30;;;19.47;;
14992;SDS011;7592;51.088;13.732;2024-02-16T00:25:00;22.70;;;19.07;;
14992;SDS011;7592;51.088;13.732;2024-02-16T00:29:53;20.60;;;17.13;;
14992;SDS011;7592;51.088;13.732;2024-02-16T00:34:45;20.67;;;16.07;;
14992;SDS011;7592;51.088;13.732;2024-02-16T00:39:38;17.90;;;15.93;;
14992;SDS011;7592;51.088;13.732;2024-02-16T00:44:33;24.50;;;21.50;;
14992;SDS011;7592;51.088;13.732;2024-02-16T00:49:26;20.53;;;17.90;;
14992;SDS011;7592;51.088;13.732;2024-02-16T00:54:18;22.40;;;20.00;;
14992;SDS011;7592;51.088;13.732;2024-02-16T00:59:12;24.97;;;20.93;;
14992;SDS011;7592;51.088;13.732;2024-02-16T01:04:04;21.50;;;19.13;;
14992;SDS011;7592;51.088;13.732;2024-02-16T01:08:58;17.80;;;15.40;;
14992;SDS011;7592;51.088;13.732;2024-02-16T01:13:50;18.93;;;15.20;;
14992;SDS011;7592;51.088;13.732;2024-02-16T01:18:43;19.13;;;16.10;;
14992;SDS011;7592;51.088;13.732;2024-02-16T01:23:36;19.00;;;16.17;;
14992;SDS011;7592;51.088;13.732;2024-02-16T01:28:28;18.90;;;15.80;;
14992;SDS011;7592;51.088;13.732;2024-02-16T01:33:20;19.37;;;16.63;;
14992;SDS011;7592;51.088;13.732;2024-02-16T01:38:13;23.67;;;18.67;;
14992;SDS011;7592;51.088;13.732;2024-02-16T01:43:05;23.30;;;18.70;;
14992;SDS011;7592;51.088;13.732;2024-02-16T01:47:57;23.47;;;20.90;;
14992;SDS011;7592;51.088;13.732;2024-02-16T01:52:51;22.00;;;17.83;;
14992;SDS011;7592;51.088;13.732;2024-02-16T01:57:44;23.47;;;18.03;;
14992;SDS011;7592;51.088;13.732;2024-02-16T02:02:37;23.50;;;17.97;;
14992;SDS011;7592;51.088;13.732;2024-02-16T02:13:15;18.30;;;15.90;;
14992;SDS011;7592;51.088;13.732;2024-02-16T02:18:07;22.47;;;15.70;;
14992;SDS011;7592;51.088;13.732;2024-02-16T02:22:59;15.80;;;12.73;;
14992;SDS011;7592;51.088;13.732;2024-02-16T02:27:51;20.63;;;16.47;;
14992;SDS011;7592;51.088;13.732;2024-02-16T02:32:43;19.47;;;16.03;;
14992;SDS011;7592;51.088;13.732;2024-02-16T02:37:35;19.33;;;16.27;;
14992;SDS011;7592;51.088;13.732;2024-02-16T02:42:27;20.57;;;15.27;;
14992;SDS011;7592;51.088;13.732;2024-02-16T02:47:20;21.53;;;16.20;;
14992;SDS011;7592;51.088;13.732;2024-02-16T02:52:12;23.73;;;17.03;;
14992;SDS011;7592;51.088;13.732;2024-02-16T02:57:05;20.63;;;16.23;;
14992;SDS011;7592;51.088;13.732;2024-02-16T03:01:57;29.40;;;20.87;;
14992;SDS011;7592;51.088;13.732;2024-02-16T03:06:52;26.83;;;20.03;;
14992;SDS011;7592;51.088;13.732;2024-02-16T03:11:45;24.27;;;17.90;;
14992;SDS011;7592;51.088;13.732;2024-02-16T03:16:37;21.67;;;17.67;;
14992;SDS011;7592;51.088;13.732;2024-02-16T03:21:29;23.67;;;18.03;;
14992;SDS011;7592;51.088;13.732;2024-02-16T03:26:21;20.70;;;15.73;;
14992;SDS011;7592;51.088;13.732;2024-02-16T03:31:17;27.60;;;14.47;;
14992;SDS011;7592;51.088;13.732;2024-02-16T03:36:10;15.77;;;14.07;;
14992;SDS011;7592;51.088;13.732;2024-02-16T03:41:04;25.10;;;16.47;;
14992;SDS011;7592;51.088;13.732;2024-02-16T03:45:56;28.23;;;23.00;;
14992;SDS011;7592;51.088;13.732;2024-02-16T03:50:48;16.43;;;14.33;;
14992;SDS011;7592;51.088;13.732;2024-02-16T03:55:40;17.87;;;14.77;;
14992;SDS011;7592;51.088;13.732;2024-02-16T04:00:33;17.93;;;14.40;;
14992;SDS011;7592;51.088;13.732;2024-02-16T04:05:27;18.67;;;14.73;;
14992;SDS011;7592;51.088;13.732;2024-02-16T04:10:22;17.90;;;15.20;;
14992;SDS011;7592;51.088;13.732;2024-02-16T04:15:14;19.00;;;17.00;;
14992;SDS011;7592;51.088;13.732;2024-02-16T04:20:07;18.03;;;15.77;;
14992;SDS011;7592;51.088;13.732;2024-02-16T04:25:00;19.97;;;16.60;;
14992;SDS011;7592;51.088;13.732;2024-02-16T04:29:53;20.53;;;18.27;;
14992;SDS011;7592;51.088;13.732;2024-02-16T04:34:46;20.47;;;17.77;;
14992;SDS011;7592;51.088;13.732;2024-02-16T04:39:38;19.90;;;17.73;;
14992;SDS011;7592;51.088;13.732;2024-02-16T04:44:31;22.90;;;20.60;;
14992;SDS011;7592;51.088;13.732;2024-02-16T04:49:23;19.93;;;16.93;;
14992;SDS011;7592;51.088;13.732;2024-02-16T04:54:16;19.87;;;16.33;;
14992;SDS011;7592;51.088;13.732;2024-02-16T04:59:08;19.83;;;17.57;;
14992;SDS011;7592;51.088;13.732;2024-02-16T05:04:00;20.03;;;17.93;;
14992;SDS011;7592;51.088;13.732;2024-02-16T05:08:55;21.43;;;18.07;;
14992;SDS011;7592;51.088;13.732;2024-02-16T05:13:48;19.50;;;17.07;;
14992;SDS011;7592;51.088;13.732;2024-02-16T05:18:40;20.20;;;18.00;;
14992;SDS011;7592;51.088;13.732;2024-02-16T05:23:32;21.63;;;18.13;;
14992;SDS011;7592;51.088;13.732;2024-02-16T05:28:25;19.33;;;17.13;;
14992;SDS011;7592;51.088;13.732;2024-02-16T05:33:17;20.63;;;18.27;;
14992;SDS011;7592;51.088;13.732;2024-02-16T05:38:09;18.67;;;16.77;;
14992;SDS011;7592;51.088;13.732;2024-02-16T05:43:23;20.43;;;18.23;;
14992;SDS011;7592;51.088;13.732;2024-02-16T05:48:15;20.33;;;17.77;;
14992;SDS011;7592;51.088;13.732;2024-02-16T05:53:07;20.50;;;17.97;;
14992;SDS011;7592;51.088;13.732;2024-02-16T05:58:01;19.53;;;17.43;;
14992;SDS011;7592;51.088;13.732;2024-02-16T06:02:55;20.30;;;18.30;;
14992;SDS011;7592;51.088;13.732;2024-02-16T06:07:47;21.57;;;18.37;;
14992;SDS011;7592;51.088;13.732;2024-02-16T06:12:39;20.10;;;18.03;;
14992;SDS011;7592;51.088;13.732;2024-02-16T06:17:32;20.10;;;18.07;;
14992;SDS011;7592;51.088;13.732;2024-02-16T06:22:24;18.13;;;15.63;;
14992;SDS011;7592;51.088;13.732;2024-02-16T06:27:16;21.17;;;18.77;;
14992;SDS011;7592;51.088;13.732;2024-02-16T06:32:09;22.63;;;19.27;;
14992;SDS011;7592;51.088;13.732;2024-02-16T06:37:04;22.03;;;18.87;;
14992;SDS011;7592;51.088;13.732;2024-02-16T06:41:56;19.50;;;17.43;;
14992;SDS011;7592;51.088;13.732;2024-02-16T06:46:49;21.73;;;19.27;;
14992;SDS011;7592;51.088;13.732;2024-02-16T06:51:41;20.27;;;17.23;;
14992;SDS011;7592;51.088;13.732;2024-02-16T06:56:34;22.17;;;17.80;;
14992;SDS011;7592;51.088;13.732;2024-02-16T07:01:27;20.47;;;18.27;;
14992;SDS011;7592;51.088;13.732;2024-02-16T07:06:19;20.30;;;17.80;;
14992;SDS011;7592;51.088;13.732;2024-02-16T07:11:14;19.23;;;17.20;;
14992;SDS011;7592;51.088;13.732;2024-02-16T07:16:06;23.40;;;18.77;;
14992;SDS011;7592;51.088;13.732;2024-02-16T07:20:58;20.23;;;18.13;;
14992;SDS011;7592;51.088;13.732;2024-02-16T07:25:51;19.90;;;17.43;;
14992;SDS011;7592;51.088;13.732;2024-02-16T07:30:46;22.47;;;18.53;;
14992;SDS011;7592;51.088;13.732;2024-02-16T07:35:38;22.27;;;18.23;;
14992;SDS011;7592;51.088;13.732;2024-02-16T07:40:31;20.87;;;17.60;;
14992;SDS011;7592;51.088;13.732;2024-02-16T07:45:23;19.00;;;16.43;;
14992;SDS011;7592;51.088;13.732;2024-02-16T07:50:18;18.23;;;16.13;;
14992;SDS011;7592;51.088;13.732;2024-02-16T07:55:12;18.30;;;16.33;;
14992;SDS011;7592;51.088;13.732;2024-02-16T08:00:05;19.40;;;17.50;;
14992;SDS011;7592;51.088;13.732;2024-02-16T08:04:58;18.07;;;16.17;;
14992;SDS011;7592;51.088;13.732;2024-02-16T08:09:51;17.17;;;15.37;;
14992;SDS011;7592;51.088;13.732;2024-02-16T08:14:43;16.23;;;14.53;;
14992;SDS011;7592;51.088;13.732;2024-02-16T08:19:37;18.10;;;15.33;;
14992;SDS011;7592;51.088;13.732;2024-02-16T08:24:33;15.63;;;14.13;;
14992;SDS011;7592;51.088;13.732;2024-02-16T08:29:26;16.67;;;14.93;;
14992;SDS011;7592;51.088;13.732;2024-02-16T08:34:18;17.77;;;15.27;;
14992;SDS011;7592;51.088;13.732;2024-02-16T08:39:11;18.13;;;15.87;;
14992;SDS011;7592;51.088;13.732;2024-02-16T08:44:04;18.47;;;15.97;;
14992;SDS011;7592;51.088;13.732;2024-02-16T08:55:21;19.37;;;16.53;;
14992;SDS011;7592;51.088;13.732;2024-02-16T09:00:14;19.57;;;16.93;;
14992;SDS011;7592;51.088;13.732;2024-02-16T09:05:08;17.70;;;15.87;;
14992;SDS011;7592;51.088;13.732;2024-02-16T09:10:04;17.47;;;15.43;;
14992;SDS011;7592;51.088;13.732;2024-02-16T09:14:57;18.53;;;14.53;;
14992;SDS011;7592;51.088;13.732;2024-02-16T09:19:50;15.97;;;14.37;;
14992;SDS011;7592;51.088;13.732;2024-02-16T09:24:42;15.37;;;13.87;;
14992;SDS011;7592;51.088;13.732;2024-02-16T09:29:38;15.90;;;14.30;;
14992;SDS011;7592;51.088;13.732;2024-02-16T09:34:31;17.23;;;15.47;;
14992;SDS011;7592;51.088;13.732;2024-02-16T09:39:24;17.77;;;15.47;;
14992;SDS011;7592;51.088;13.732;2024-02-16T09:44:20;17.10;;;15.40;;
14992;SDS011;7592;51.088;13.732;2024-02-16T09:49:13;17.83;;;15.97;;
14992;SDS011;7592;51.088;13.732;2024-02-16T09:54:06;17.13;;;14.87;;
14992;SDS011;7592;51.088;13.732;2024-02-16T09:58:59;15.20;;;13.60;;
14992;SDS011;7592;51.088;13.732;2024-02-16T10:10:22;15.53;;;13.90;;
14992;SDS011;7592;51.088;13.732;2024-02-16T10:15:20;18.43;;;15.07;;
14992;SDS011;7592;51.088;13.732;2024-02-16T10:20:17;17.87;;;13.73;;
14992;SDS011;7592;51.088;13.732;2024-02-16T10:25:10;15.70;;;14.13;;
14992;SDS011;7592;51.088;13.732;2024-02-16T10:30:06;17.40;;;14.40;;
14992;SDS011;7592;51.088;13.732;2024-02-16T10:35:04;14.53;;;13.13;;
14992;SDS011;7592;51.088;13.732;2024-02-16T10:40:01;19.17;;;14.73;;
14992;SDS011;7592;51.088;13.732;2024-02-16T10:44:55;16.43;;;14.83;;
14992;SDS011;7592;51.088;13.732;2024-02-16T10:49:48;16.27;;;14.70;;
14992;SDS011;7592;51.088;13.732;2024-02-16T10:54:42;17.37;;;15.73;;
14992;SDS011;7592;51.088;13.732;2024-02-16T10:59:41;17.50;;;15.73;;
14992;SDS011;7592;51.088;13.732;2024-02-16T11:04:45;16.33;;;14.83;;
14992;SDS011;7592;51.088;13.732;2024-02-16T11:09:39;16.93;;;15.30;;
14992;SDS011;7592;51.088;13.732;2024-02-16T11:14:39;16.63;;;14.93;;
14992;SDS011;7592;51.088;13.732;2024-02-16T11:19:37;17.03;;;15.33;;
14992;SDS011;7592;51.088;13.732;2024-02-16T11:24:32;17.93;;;16.00;;
14992;SDS011;7592;51.088;13.732;2024-02-16T11:29:25;16.90;;;15.27;;
14992;SDS011;7592;51.088;13.732;2024-02-16T11:34:21;17.93;;;16.03;;
14992;SDS011;7592;51.088;13.732;2024-02-16T11:39:19;16.27;;;14.67;;
14992;SDS011;7592;51.088;13.732;2024-02-16T11:44:14;16.40;;;14.77;;
14992;SDS011;7592;51.088;13.732;2024-02-16T11:49:08;16.00;;;14.40;;
14992;SDS011;7592;51.088;13.732;2024-02-16T11:54:02;16.00;;;14.50;;
14992;SDS011;7592;51.088;13.732;2024-02-16T11:58:55;16.67;;;14.97;;
14992;SDS011;7592;51.088;13.732;2024-02-16T12:03:48;16.87;;;15.17;;
14992;SDS011;7592;51.088;13.732;2024-02-16T12:08:41;16.80;;;15.10;;
14992;SDS011;7592;51.088;13.732;2024-02-16T12:13:33;16.50;;;14.80;;
14992;SDS011;7592;51.088;13.732;2024-02-16T12:18:26;15.70;;;14.30;;
14992;SDS011;7592;51.088;13.732;2024-02-16T12:23:21;16.23;;;14.53;;
14992;SDS011;7592;51.088;13.732;2024-02-16T12:28:14;14.53;;;13.07;;
14992;SDS011;7592;51.088;13.732;2024-02-16T12:33:07;15.77;;;13.20;;
14992;SDS011;7592;51.088;13.732;2024-02-16T12:38:00;14.97;;;13.53;;
14992;SDS011;7592;51.088;13.732;2024-02-16T12:42:52;15.43;;;13.57;;
14992;SDS011;7592;51.088;13.732;2024-02-16T12:47:44;15.10;;;13.53;;
14992;SDS011;7592;51.088;13.732;2024-02-16T12:52:38;13.67;;;12.27;;
14992;SDS011;7592;51.088;13.732;2024-02-16T12:57:44;14.27;;;12.87;;
14992;SDS011;7592;51.088;13.732;2024-02-16T13:02:37;13.30;;;12.00;;
14992;SDS011;7592;51.088;13.732;2024-02-16T13:07:29;14.27;;;12.87;;
14992;SDS011;7592;51.088;13.732;2024-02-16T13:12:21;13.83;;;11.90;;
14992;SDS011;7592;51.088;13.732;2024-02-16T13:17:15;12.60;;;11.50;;
14992;SDS011;7592;51.088;13.732;2024-02-16T13:22:09;14.13;;;10.67;;
14992;SDS011;7592;51.088;13.732;2024-02-16T13:27:02;11.03;;;9.90;;
14992;SDS011;7592;51.088;13.732;2024-02-16T13:31:57;11.60;;;10.50;;
14992;SDS011;7592;51.088;13.732;2024-02-16T13:36:50;12.60;;;11.40;;
14992;SDS011;7592;51.088;13.732;2024-02-16T13:41:43;11.60;;;10.40;;
14992;SDS011;7592;51.088;13.732;2024-02-16T13:46:38;21.20;;;15.40;;
14992;SDS011;7592;51.088;13.732;2024-02-16T13:51:31;13.03;;;11.83;;
14992;SDS011;7592;51.088;13.732;2024-02-16T13:56:24;13.60;;;11.33;;
14992;SDS011;7592;51.088;13.732;2024-02-16T14:01:16;13.37;;;11.97;;
14992;SDS011;7592;51.088;13.732;2024-02-16T14:06:09;14.97;;;13.43;;
14992;SDS011;7592;51.088;13.732;2024-02-16T14:11:04;13.67;;;12.27;;
14992;SDS011;7592;51.088;13.732;2024-02-16T14:15:56;15.23;;;13.77;;
14992;SDS011;7592;51.088;13.732;2024-02-16T14:20:49;14.63;;;13.13;;
14992;SDS011;7592;51.088;13.732;2024-02-16T14:25:41;15.83;;;13.90;;
14992;SDS011;7592;51.088;13.732;2024-02-16T14:30:34;16.67;;;14.53;;
14992;SDS011;7592;51.088;13.732;2024-02-16T14:35:27;17.37;;;15.57;;
14992;SDS011;7592;51.088;13.732;2024-02-16T14:40:21;17.53;;;15.83;;
14992;SDS011;7592;51.088;13.732;2024-02-16T14:45:14;18.77;;;16.77;;
14992;SDS011;7592;51.088;13.732;2024-02-16T14:50:14;18.20;;;16.40;;
14992;SDS011;7592;51.088;13.732;2024-02-16T14:55:07;19.33;;;17.10;;
14992;SDS011;7592;51.088;13.732;2024-02-16T15:00:02;19.70;;;17.63;;
14992;SDS011;7592;51.088;13.732;2024-02-16T15:04:55;21.13;;;19.00;;
14992;SDS011;7592;51.088;13.732;2024-02-16T15:09:49;21.30;;;19.13;;
14992;SDS011;7592;51.088;13.732;2024-02-16T15:14:42;24.13;;;20.93;;
14992;SDS011;7592;51.088;13.732;2024-02-16T15:19:35;25.77;;;21.30;;
14992;SDS011;7592;51.088;13.732;2024-02-16T15:24:27;25.43;;;22.33;;
14992;SDS011;7592;51.088;13.732;2024-02-16T15:29:20;24.23;;;21.30;;
14992;SDS011;7592;51.088;13.732;2024-02-16T15:34:12;29.30;;;21.33;;
14992;SDS011;7592;51.088;13.732;2024-02-16T15:39:05;22.90;;;20.43;;
14992;SDS011;7592;51.088;13.732;2024-02-16T15:43:59;21.50;;;19.20;;
14992;SDS011;7592;51.088;13.732;2024-02-16T15:55:21;22.77;;;19.27;;
14992;SDS011;7592;51.088;13.732;2024-02-16T16:00:14;24.30;;;20.67;;
14992;SDS011;7592;51.088;13.732;2024-02-16T16:05:08;22.53;;;20.13;;
14992;SDS011;7592;51.088;13.732;2024-02-16T16:10:01;25.50;;;21.13;;
14992;SDS011;7592;51.088;13.732;2024-02-16T16:14:53;25.70;;;20.40;;
14992;SDS011;7592;51.088;13.732;2024-02-16T16:19:46;27.03;;;22.23;;
14992;SDS011;7592;51.088;13.732;2024-02-16T16:24:40;25.23;;;20.67;;
14992;SDS011;7592;51.088;13.732;2024-02-16T16:29:34;23.10;;;19.93;;
14992;SDS011;7592;51.088;13.732;2024-02-16T16:34:28;23.07;;;20.33;;
14992;SDS011;7592;51.088;13.732;2024-02-16T16:39:21;26.07;;;21.77;;
14992;SDS011;7592;51.088;13.732;2024-02-16T16:44:14;22.07;;;19.27;;
14992;SDS011;7592;51.088;13.732;2024-02-16T16:49:07;23.23;;;20.00;;
14992;SDS011;7592;51.088;13.732;2024-02-16T16:53:59;22.60;;;20.07;;
14992;SDS011;7592;51.088;13.732;2024-02-16T16:58:51;24.73;;;20.27;;
14992;SDS011;7592;51.088;13.732;2024-02-16T17:10:32;23.37;;;19.77;;
14992;SDS011;7592;51.088;13.732;2024-02-16T17:15:25;22.70;;;20.13;;
14992;SDS011;7592;51.088;13.732;2024-02-16T17:20:20;24.17;;;20.80;;
14992;SDS011;7592;51.088;13.732;2024-02-16T17:25:17;23.57;;;21.00;;
14992;SDS011;7592;51.088;13.732;2024-02-16T17:30:11;27.13;;;22.10;;
14992;SDS011;7592;51.088;13.732;2024-02-16T17:35:05;24.53;;;20.43;;
14992;SDS011;7592;51.088;13.732;2024-02-16T17:39:59;23.70;;;21.03;;
14992;SDS011;7592;51.088;13.732;2024-02-16T17:44:51;23.13;;;20.40;;
14992;SDS011;7592;51.088;13.732;2024-02-16T17:49:44;28.77;;;23.50;;
14992;SDS011;7592;51.088;13.732;2024-02-16T17:54:37;24.53;;;20.40;;
14992;SDS011;7592;51.088;13.732;2024-02-16T17:59:31;26.80;;;21.33;;
14992;SDS011;7592;51.088;13.732;2024-02-16T18:04:24;23.70;;;21.10;;
14992;SDS011;7592;51.088;13.732;2024-02-16T18:09:16;25.00;;;21.17;;
14992;SDS011;7592;51.088;13.732;2024-02-16T18:14:09;23.73;;;21.13;;
14992;SDS011;7592;51.088;13.732;2024-02-16T18:25:21;26.00;;;22.00;;
14992;SDS011;7592;51.088;13.732;2024-02-16T18:30:16;23.83;;;20.00;;
14992;SDS011;7592;51.088;13.732;2024-02-16T18:35:09;26.50;;;21.20;;
14992;SDS011;7592;51.088;13.732;2024-02-16T18:40:02;24.07;;;21.43;;
14992;SDS011;7592;51.088;13.732;2024-02-16T18:44:56;22.67;;;19.93;;
14992;SDS011;7592;51.088;13.732;2024-02-16T18:49:49;25.67;;;22.40;;
14992;SDS011;7592;51.088;13.732;2024-02-16T18:54:44;24.37;;;21.17;;
14992;SDS011;7592;51.088;13.732;2024-02-16T18:59:38;23.47;;;20.67;;
14992;SDS011;7592;51.088;13.732;2024-02-16T19:04:30;21.87;;;19.53;;
14992;SDS011;7592;51.088;13.732;2024-02-16T19:09:24;25.13;;;20.50;;
14992;SDS011;7592;51.088;13.732;2024-02-16T19:14:17;23.27;;;20.17;;
14992;SDS011;7592;51.088;13.732;2024-02-16T19:25:24;24.07;;;20.13;;
14992;SDS011;7592;51.088;13.732;2024-02-16T19:30:17;22.37;;;19.87;;
14992;SDS011;7592;51.088;13.732;2024-02-16T19:35:16;22.93;;;18.73;;
14992;SDS011;7592;51.088;13.732;2024-02-16T19:40:13;21.27;;;18.87;;
14992;SDS011;7592;51.088;13.732;2024-02-16T19:45:06;24.70;;;20.00;;
14992;SDS011;7592;51.088;13.732;2024-02-16T19:49:59;23.50;;;19.73;;
14992;SDS011;7592;51.088;13.732;2024-02-16T19:54:54;23.47;;;20.83;;
14992;SDS011;7592;51.088;13.732;2024-02-16T19:59:50;22.70;;;20.30;;
14992;SDS011;7592;51.088;13.732;2024-02-16T20:04:42;21.20;;;18.83;;
14992;SDS011;7592;51.088;13.732;2024-02-16T20:09:35;21.97;;;18.97;;
14992;SDS011;7592;51.088;13.732;2024-02-16T20:14:28;22.63;;;18.97;;
14992;SDS011;7592;51.088;13.732;2024-02-16T20:19:21;24.97;;;20.77;;
14992;SDS011;7592;51.088;13.732;2024-02-16T20:30:23;24.73;;;19.97;;
14992;SDS011;7592;51.088;13.732;2024-02-16T20:35:17;22.73;;;19.57;;
14992;SDS011;7592;51.088;13.732;2024-02-16T20:40:11;22.50;;;20.10;;
14992;SDS011;7592;51.088;13.732;2024-02-16T20:45:04;24.10;;;20.50;;
14992;SDS011;7592;51.088;13.732;2024-02-16T20:49:58;24.90;;;21.53;;
14992;SDS011;7592;51.088;13.732;2024-02-16T20:54:51;23.20;;;20.73;;
14992;SDS011;7592;51.088;13.732;2024-02-16T20:59:44;27.03;;;22.63;;
14992;SDS011;7592;51.088;13.732;2024-02-16T21:04:37;23.80;;;20.50;;
14992;SDS011;7592;51.088;13.732;2024-02-16T21:09:30;23.03;;;20.37;;
14992;SDS011;7592;51.088;13.732;2024-02-16T21:14:23;23.83;;;20.80;;
14992;SDS011;7592;51.088;13.732;2024-02-16T21:19:16;21.67;;;19.10;;
14992;SDS011;7592;51.088;13.732;2024-02-16T21:24:13;22.17;;;19.87;;
14992;SDS011;7592;51.088;13.732;2024-02-16T21:29:12;22.20;;;19.90;;
14992;SDS011;7592;51.088;13.732;2024-02-16T21:34:06;23.23;;;20.77;;
14992;SDS011;7592;51.088;13.732;2024-02-16T21:38:59;24.47;;;21.27;;
14992;SDS011;7592;51.088;13.732;2024-02-16T21:43:52;22.17;;;19.70;;
14992;SDS011;7592;51.088;13.732;2024-02-16T21:48:45;21.20;;;18.87;;
14992;SDS011;7592;51.088;13.732;2024-02-16T21:53:40;20.37;;;18.17;;
14992;SDS011;7592;51.088;13.732;2024-02-16T21:58:33;21.23;;;18.83;;
14992;SDS011;7592;51.088;13.732;2024-02-16T22:03:26;24.77;;;20.03;;
14992;SDS011;7592;51.088;13.732;2024-02-16T22:08:19;23.20;;;18.17;;
14992;SDS011;7592;51.088;13.732;2024-02-16T22:13:12;20.40;;;18.20;;
14992;SDS011;7592;51.088;13.732;2024-02-16T22:18:04;21.27;;;18.97;;
14992;SDS011;7592;51.088;13.732;2024-02-16T22:22:57;20.63;;;18.43;;
14992;SDS011;7592;51.088;13.732;2024-02-16T22:27:51;24.37;;;19.93;;
14992;SDS011;7592;51.088;13.732;2024-02-16T22:32:44;24.03;;;19.63;;
14992;SDS011;7592;51.088;13.732;2024-02-16T22:37:36;22.80;;;19.93;;
14992;SDS011;7592;51.088;13.732;2024-02-16T22:42:30;20.30;;;18.10;;
14992;SDS011;7592;51.088;13.732;2024-02-16T22:47:23;21.87;;;18.47;;
14992;SDS011;7592;51.088;13.732;2024-02-16T22:52:16;18.70;;;16.77;;
14992;SDS011;7592;51.088;13.732;2024-02-16T22:57:09;21.27;;;18.40;;
14992;SDS011;7592;51.088;13.732;2024-02-16T23:02:03;20.80;;;18.63;;
14992;SDS011;7592;51.088;13.732;2024-02-16T23:06:56;20.07;;;17.60;;
14992;SDS011;7592;51.088;13.732;2024-02-16T23:11:49;21.13;;;18.10;;
14992;SDS011;7592;51.088;13.732;2024-02-16T23:16:43;21.33;;;17.20;;
14992;SDS011;7592;51.088;13.732;2024-02-16T23:21:37;17.90;;;15.97;;
14992;SDS011;7592;51.088;13.732;2024-02-16T23:26:32;21.20;;;15.67;;
14992;SDS011;7592;51.088;13.732;2024-02-16T23:31:25;17.87;;;15.40;;
14992;SDS011;7592;51.088;13.732;2024-02-16T23:36:18;16.20;;;14.60;;
14992;SDS011;7592;51.088;13.732;2024-02-16T23:47:58;16.70;;;14.60;;
14992;SDS011;7592;51.088;13.732;2024-02-16T23:52:51;18.87;;;16.40;;
14992;SDS011;7592;51.088;13.732;2024-02-16T23:57:44;19.73;;;15.97;;
